createdAt,value
2019-03-09T00:00:38.256Z,72.57
2019-03-09T00:03:08.660Z,73.13
2019-03-09T00:05:40.281Z,72.77
2019-03-09T00:08:10.541Z,73.12
2019-03-09T00:10:42.766Z,72.44
2019-03-09T00:13:13.006Z,71.83
2019-03-09T00:15:41.761Z,72.28
2019-03-09T00:18:11.055Z,72.35
2019-03-09T00:20:41.837Z,72.22
2019-03-09T00:23:12.775Z,72.36
2019-03-09T00:25:47.890Z,72.38
2019-03-09T00:28:19.790Z,72.13
2019-03-09T00:30:51.694Z,71.81
2019-03-09T00:33:22.006Z,71.82
2019-03-09T00:35:51.304Z,71.78
2019-03-09T00:38:21.619Z,71.38
2019-03-09T00:40:51.918Z,72.14
2019-03-09T00:43:23.599Z,72.80
2019-03-09T00:45:53.877Z,73.00
2019-03-09T00:48:23.087Z,74.31
2019-03-09T00:50:55.174Z,74.71
2019-03-09T00:53:26.009Z,74.98
2019-03-09T00:55:55.395Z,74.74
2019-03-09T00:58:26.670Z,74.97
2019-03-09T01:00:56.047Z,74.96
2019-03-09T01:03:24.786Z,75.08
2019-03-09T01:05:59.086Z,74.87
2019-03-09T01:08:28.440Z,73.86
2019-03-09T01:10:58.670Z,74.24
2019-03-09T01:13:30.482Z,74.70
2019-03-09T01:16:01.653Z,74.81
2019-03-09T01:18:33.908Z,75.63
2019-03-09T01:21:06.765Z,76.41
2019-03-09T01:23:38.190Z,76.64
2019-03-09T01:26:08.462Z,76.86
2019-03-09T01:28:38.737Z,77.73
2019-03-09T01:31:08.304Z,77.81
2019-03-09T01:33:40.434Z,77.52
2019-03-09T01:36:11.514Z,76.96
2019-03-09T01:38:40.251Z,77.21
2019-03-09T01:41:11.666Z,77.19
2019-03-09T01:43:43.990Z,77.21
2019-03-09T01:46:15.374Z,77.31
2019-03-09T01:48:45.714Z,77.22
2019-03-09T01:51:17.901Z,77.76
2019-03-09T01:53:47.226Z,78.14
2019-03-09T01:56:19.438Z,78.40
2019-03-09T01:58:49.741Z,78.85
2019-03-09T02:01:23.925Z,78.83
2019-03-09T02:03:52.648Z,79.37
2019-03-09T02:06:21.969Z,78.99
2019-03-09T02:08:51.241Z,79.27
2019-03-09T02:11:20.519Z,79.02
2019-03-09T02:13:50.896Z,78.54
2019-03-09T02:16:20.290Z,78.00
2019-03-09T02:18:51.720Z,78.34
2019-03-09T02:21:23.854Z,78.38
2019-03-09T02:23:53.161Z,78.78
2019-03-09T02:26:23.401Z,78.66
2019-03-09T02:28:53.677Z,78.97
2019-03-09T02:31:22.964Z,79.33
2019-03-09T02:33:52.322Z,79.53
2019-03-09T02:36:22.543Z,79.67
2019-03-09T02:38:54.887Z,79.82
2019-03-09T02:41:24.219Z,79.21
2019-03-09T02:43:57.713Z,79.95
2019-03-09T02:46:27.036Z,80.51
2019-03-09T02:48:57.616Z,81.32
2019-03-09T02:51:26.945Z,80.20
2019-03-09T02:53:58.086Z,79.85
2019-03-09T02:56:28.313Z,79.87
2019-03-09T02:58:58.603Z,79.74
2019-03-09T03:01:39.134Z,79.79
2019-03-09T03:04:08.426Z,79.32
2019-03-09T03:06:38.641Z,79.40
2019-03-09T03:09:09.130Z,79.58
2019-03-09T03:11:38.410Z,79.96
2019-03-09T03:14:07.976Z,79.39
2019-03-09T03:16:37.271Z,79.78
2019-03-09T03:19:06.930Z,79.96
2019-03-09T03:21:36.205Z,79.43
2019-03-09T03:24:08.486Z,79.77
2019-03-09T03:26:40.719Z,80.05
2019-03-09T03:29:12.219Z,80.00
2019-03-09T03:31:42.481Z,80.25
2019-03-09T03:34:12.185Z,79.70
2019-03-09T03:36:41.446Z,80.09
2019-03-09T03:39:11.661Z,79.76
2019-03-09T03:41:40.946Z,80.20
2019-03-09T03:44:11.280Z,80.27
2019-03-09T03:46:41.491Z,80.28
2019-03-09T03:49:10.805Z,80.22
2019-03-09T03:51:39.515Z,80.36
2019-03-09T03:54:08.819Z,80.41
2019-03-09T03:56:40.973Z,79.95
2019-03-09T03:59:11.382Z,80.22
2019-03-09T04:01:40.177Z,80.32
2019-03-09T04:04:10.100Z,80.38
2019-03-09T04:06:39.517Z,80.33
2019-03-09T04:09:09.806Z,80.08
2019-03-09T04:11:40.275Z,80.16
2019-03-09T04:14:10.863Z,80.46
2019-03-09T04:16:40.146Z,79.95
2019-03-09T04:19:10.532Z,80.11
2019-03-09T04:21:39.830Z,80.21
2019-03-09T04:24:10.146Z,80.23
2019-03-09T04:26:40.435Z,80.17
2019-03-09T04:29:10.737Z,79.54
2019-03-09T04:31:40.122Z,79.62
2019-03-09T04:34:10.449Z,79.93
2019-03-09T04:36:40.759Z,79.44
2019-03-09T04:39:12.463Z,79.66
2019-03-09T04:41:44.654Z,79.25
2019-03-09T04:44:14.894Z,79.42
2019-03-09T04:46:45.166Z,79.89
2019-03-09T04:49:15.910Z,79.89
2019-03-09T04:51:48.262Z,80.19
2019-03-09T04:54:17.544Z,79.66
2019-03-09T04:56:47.629Z,79.82
2019-03-09T04:59:16.957Z,80.03
2019-03-09T05:01:48.208Z,80.28
2019-03-09T05:04:30.508Z,80.02
2019-03-09T05:06:59.823Z,79.88
2019-03-09T05:09:54.481Z,79.88
2019-03-09T05:12:23.764Z,80.01
2019-03-09T05:14:54.192Z,80.40
2019-03-09T05:17:24.653Z,80.81
2019-03-09T05:19:53.931Z,80.33
2019-03-09T05:22:23.255Z,80.37
2019-03-09T05:24:52.523Z,80.18
2019-03-09T05:27:22.822Z,80.55
2019-03-09T05:29:53.109Z,80.44
2019-03-09T05:32:22.672Z,80.30
2019-03-09T05:34:51.911Z,80.04
2019-03-09T05:37:21.277Z,79.98
2019-03-09T05:39:50.542Z,79.45
2019-03-09T05:42:19.932Z,79.46
2019-03-09T05:44:51.568Z,79.15
2019-03-09T05:47:22.245Z,79.40
2019-03-09T05:49:54.545Z,79.83
2019-03-09T05:52:31.439Z,80.09
2019-03-09T05:55:01.676Z,80.18
2019-03-09T05:57:32.663Z,80.22
2019-03-09T06:00:01.427Z,79.92
2019-03-09T06:02:31.686Z,80.19
2019-03-09T06:05:00.966Z,80.19
2019-03-09T06:07:31.181Z,80.17
2019-03-09T06:10:01.491Z,79.54
2019-03-09T06:12:31.787Z,79.58
2019-03-09T06:15:02.034Z,79.31
2019-03-09T06:17:31.838Z,79.43
2019-03-09T06:20:01.145Z,79.59
2019-03-09T06:22:31.694Z,79.10
2019-03-09T06:25:02.825Z,78.73
2019-03-09T06:27:32.193Z,78.50
2019-03-09T06:30:02.451Z,78.29
2019-03-09T06:32:35.752Z,77.85
2019-03-09T06:35:09.141Z,77.95
2019-03-09T06:37:38.471Z,78.04
2019-03-09T06:40:10.016Z,78.05
2019-03-09T06:42:45.714Z,77.92
2019-03-09T06:45:16.214Z,76.73
2019-03-09T06:47:46.775Z,74.32
2019-03-09T06:50:18.126Z,72.60
2019-03-09T06:52:47.475Z,72.22
2019-03-09T06:55:17.805Z,72.55
2019-03-09T06:57:48.146Z,71.67
2019-03-09T07:00:26.155Z,71.36
2019-03-09T07:02:56.460Z,71.64
2019-03-09T07:05:26.728Z,70.74
2019-03-09T07:07:57.033Z,71.10
2019-03-09T07:10:26.311Z,70.58
2019-03-09T07:12:55.619Z,70.21
2019-03-09T07:15:27.929Z,69.49
2019-03-09T07:18:00.237Z,69.81
2019-03-09T07:20:30.670Z,69.62
2019-03-09T07:23:00.945Z,69.16
2019-03-09T07:25:30.567Z,68.76
2019-03-09T07:28:09.305Z,69.72
2019-03-09T07:30:39.722Z,70.08
2019-03-09T07:33:09.587Z,69.40
2019-03-09T07:35:39.022Z,69.34
2019-03-09T07:38:07.969Z,68.44
2019-03-09T07:40:38.300Z,68.19
2019-03-09T07:43:07.072Z,67.99
2019-03-09T07:45:37.798Z,67.35
2019-03-09T07:48:08.048Z,68.10
2019-03-09T07:50:38.350Z,66.75
2019-03-09T07:53:07.728Z,66.86
2019-03-09T07:55:39.376Z,66.76
2019-03-09T07:58:08.795Z,66.61
2019-03-09T08:00:38.087Z,66.65
2019-03-09T08:03:08.686Z,66.57
2019-03-09T08:05:40.879Z,65.54
2019-03-09T08:08:11.171Z,66.42
2019-03-09T08:10:41.400Z,66.64
2019-03-09T08:13:10.694Z,66.45
2019-03-09T08:15:40.008Z,67.03
2019-03-09T08:18:10.323Z,66.50
2019-03-09T08:20:42.472Z,67.13
2019-03-09T08:23:11.751Z,67.23
2019-03-09T08:25:41.117Z,67.73
2019-03-09T08:28:11.263Z,67.46
2019-03-09T08:30:40.552Z,67.95
2019-03-09T08:33:10.830Z,66.62
2019-03-09T08:35:41.253Z,65.46
2019-03-09T08:38:10.446Z,65.06
2019-03-09T08:40:42.669Z,64.43
2019-03-09T08:43:12.749Z,62.90
2019-03-09T08:45:43.150Z,58.41
2019-03-09T08:48:13.397Z,58.03
2019-03-09T08:50:42.708Z,58.59
2019-03-09T08:53:11.991Z,60.39
2019-03-09T08:55:43.604Z,60.59
2019-03-09T08:58:12.856Z,60.87
2019-03-09T09:00:42.970Z,59.88
2019-03-09T09:03:13.223Z,61.09
2019-03-09T09:05:43.636Z,60.95
2019-03-09T09:08:13.002Z,62.18
2019-03-09T09:10:43.280Z,63.45
2019-03-09T09:13:13.554Z,61.78
2019-03-09T09:15:43.822Z,61.96
2019-03-09T09:18:14.030Z,63.24
2019-03-09T09:20:44.330Z,59.89
2019-03-09T09:23:13.613Z,61.37
2019-03-09T09:25:43.985Z,62.74
2019-03-09T09:28:15.905Z,62.24
2019-03-09T09:30:46.160Z,62.09
2019-03-09T09:33:14.925Z,58.17
2019-03-09T09:35:45.722Z,57.54
2019-03-09T09:38:16.080Z,58.27
2019-03-09T09:40:46.350Z,57.99
2019-03-09T09:43:15.703Z,59.65
2019-03-09T09:45:46.025Z,60.32
2019-03-09T09:48:16.337Z,61.22
2019-03-09T09:50:47.411Z,62.00
2019-03-09T09:53:19.162Z,59.81
2019-03-09T09:55:50.319Z,58.81
2019-03-09T09:58:20.619Z,57.67
2019-03-09T10:00:51.054Z,58.39
2019-03-09T10:03:20.418Z,59.29
2019-03-09T10:05:51.306Z,58.74
2019-03-09T10:08:22.113Z,59.94
2019-03-09T10:10:51.402Z,60.20
2019-03-09T10:13:20.678Z,61.25
2019-03-09T10:15:49.975Z,62.32
2019-03-09T10:18:21.494Z,62.22
2019-03-09T10:20:50.793Z,62.53
2019-03-09T10:23:21.072Z,60.65
2019-03-09T10:25:49.788Z,60.20
2019-03-09T10:28:20.085Z,60.11
2019-03-09T10:30:49.391Z,60.72
2019-03-09T10:33:18.710Z,61.37
2019-03-09T10:35:47.187Z,61.45
2019-03-09T10:38:17.695Z,61.00
2019-03-09T10:40:46.176Z,58.46
2019-03-09T10:43:14.696Z,58.27
2019-03-09T10:45:43.431Z,57.29
2019-03-09T10:48:11.965Z,55.98
2019-03-09T10:50:42.322Z,55.27
2019-03-09T10:53:12.622Z,54.58
2019-03-09T10:55:43.953Z,54.62
2019-03-09T10:58:14.382Z,54.76
2019-03-09T11:00:46.901Z,53.74
2019-03-09T11:03:16.300Z,53.88
2019-03-09T11:05:45.738Z,53.64
2019-03-09T11:08:19.341Z,54.73
2019-03-09T11:10:49.586Z,55.03
2019-03-09T11:13:20.282Z,55.95
2019-03-09T11:15:50.608Z,55.71
2019-03-09T11:18:20.942Z,55.36
2019-03-09T11:20:50.226Z,55.42
2019-03-09T11:23:20.508Z,56.13
2019-03-09T11:25:49.269Z,55.69
2019-03-09T11:28:20.143Z,56.11
2019-03-09T11:30:49.459Z,55.67
2019-03-09T11:33:20.894Z,55.79
2019-03-09T11:35:51.150Z,56.08
2019-03-09T11:38:21.497Z,55.70
2019-03-09T11:40:57.360Z,56.34
2019-03-09T11:43:25.735Z,56.18
2019-03-09T11:45:56.008Z,56.23
2019-03-09T11:48:26.330Z,55.95
2019-03-09T11:50:55.603Z,55.45
2019-03-09T11:53:27.823Z,55.86
2019-03-09T11:55:58.103Z,55.59
2019-03-09T11:58:28.956Z,54.80
2019-03-09T12:00:59.319Z,54.71
2019-03-09T12:03:29.134Z,55.30
2019-03-09T12:05:59.396Z,55.17
2019-03-09T12:08:28.719Z,54.82
2019-03-09T12:10:58.928Z,54.27
2019-03-09T12:13:28.239Z,53.85
2019-03-09T12:15:59.374Z,52.64
2019-03-09T12:18:28.788Z,53.00
2019-03-09T12:20:59.125Z,52.65
2019-03-09T12:23:28.428Z,52.07
2019-03-09T12:25:57.793Z,51.48
2019-03-09T12:28:28.026Z,50.81
2019-03-09T12:30:59.688Z,50.21
2019-03-09T12:33:29.967Z,49.62
2019-03-09T12:35:58.468Z,48.85
2019-03-09T12:38:29.234Z,47.97
2019-03-09T12:40:59.481Z,48.33
2019-03-09T12:43:28.753Z,48.70
2019-03-09T12:45:59.203Z,49.35
2019-03-09T12:48:29.524Z,49.80
2019-03-09T12:50:59.790Z,50.13
2019-03-09T12:53:30.053Z,50.99
2019-03-09T12:56:00.553Z,52.97
2019-03-09T12:58:29.839Z,53.35
2019-03-09T13:00:59.946Z,53.12
2019-03-09T13:03:28.678Z,52.14
2019-03-09T13:05:58.953Z,50.67
2019-03-09T13:08:28.178Z,50.29
2019-03-09T13:10:58.445Z,49.23
2019-03-09T13:13:28.688Z,49.32
2019-03-09T13:16:02.064Z,49.31
2019-03-09T13:18:33.870Z,49.88
2019-03-09T13:21:05.453Z,51.14
2019-03-09T13:23:35.719Z,51.16
2019-03-09T13:26:06.184Z,49.81
2019-03-09T13:28:35.465Z,50.99
2019-03-09T13:31:07.688Z,51.43
2019-03-09T13:33:37.935Z,51.15
2019-03-09T13:36:09.129Z,51.80
2019-03-09T13:38:38.468Z,50.46
2019-03-09T13:41:08.415Z,50.00
2019-03-09T13:43:37.738Z,49.59
2019-03-09T13:46:07.716Z,49.70
2019-03-09T13:48:36.465Z,49.76
2019-03-09T13:51:05.799Z,49.53
2019-03-09T13:53:34.268Z,49.06
2019-03-09T13:56:03.590Z,49.16
2019-03-09T13:58:33.810Z,48.67
2019-03-09T14:01:05.801Z,47.93
2019-03-09T14:03:35.174Z,47.36
2019-03-09T14:06:06.506Z,46.47
2019-03-09T14:08:36.781Z,46.87
2019-03-09T14:11:06.133Z,46.26
2019-03-09T14:13:34.871Z,46.50
2019-03-09T14:16:04.174Z,46.92
2019-03-09T14:18:34.484Z,47.57
2019-03-09T14:21:06.183Z,47.69
2019-03-09T14:23:36.430Z,47.97
2019-03-09T14:26:05.876Z,48.45
2019-03-09T14:28:35.140Z,48.90
2019-03-09T14:31:06.258Z,48.66
2019-03-09T14:33:35.568Z,48.85
2019-03-09T14:36:05.379Z,49.07
2019-03-09T14:38:37.648Z,49.61
2019-03-09T14:41:07.949Z,50.31
2019-03-09T14:43:37.369Z,50.12
2019-03-09T14:46:06.686Z,49.95
2019-03-09T14:48:36.055Z,49.88
2019-03-09T14:51:08.121Z,50.16
2019-03-09T14:53:40.521Z,50.56
2019-03-09T14:56:10.895Z,50.93
2019-03-09T14:58:40.216Z,50.41
2019-03-09T15:01:10.570Z,50.76
2019-03-09T15:03:41.387Z,50.77
2019-03-09T15:06:11.205Z,50.74
2019-03-09T15:08:40.517Z,50.79
2019-03-09T15:11:09.850Z,51.23
2019-03-09T15:13:40.153Z,50.89
2019-03-09T15:16:09.418Z,50.88
2019-03-09T15:18:43.113Z,51.15
2019-03-09T15:21:13.326Z,51.43
2019-03-09T15:23:43.696Z,51.41
2019-03-09T15:26:13.000Z,51.21
2019-03-09T15:28:43.249Z,51.07
2019-03-09T15:31:13.596Z,50.82
2019-03-09T15:33:43.856Z,51.29
2019-03-09T15:36:13.073Z,51.28
2019-03-09T15:38:43.367Z,51.97
2019-03-09T15:41:13.677Z,51.34
2019-03-09T15:43:42.984Z,51.26
2019-03-09T15:46:13.331Z,52.23
2019-03-09T15:48:42.698Z,52.93
2019-03-09T15:51:12.968Z,53.86
2019-03-09T15:53:44.653Z,54.50
2019-03-09T15:56:14.972Z,55.49
2019-03-09T15:58:44.268Z,56.26
2019-03-09T16:01:13.579Z,56.48
2019-03-09T16:03:43.892Z,56.46
2019-03-09T16:06:13.165Z,57.09
2019-03-09T16:08:45.295Z,57.79
2019-03-09T16:11:14.652Z,58.29
2019-03-09T16:13:46.933Z,58.35
2019-03-09T16:16:16.238Z,58.64
2019-03-09T16:18:46.547Z,59.24
2019-03-09T16:21:15.920Z,59.30
2019-03-09T16:23:46.223Z,59.52
2019-03-09T16:26:16.466Z,59.61
2019-03-09T16:28:46.832Z,60.30
2019-03-09T16:31:16.105Z,60.17
2019-03-09T16:33:45.424Z,60.39
2019-03-09T16:36:15.797Z,60.38
2019-03-09T16:38:47.533Z,60.94
2019-03-09T16:41:19.246Z,60.93
2019-03-09T16:43:49.517Z,61.28
2019-03-09T16:46:19.730Z,61.17
2019-03-09T16:48:49.028Z,61.30
2019-03-09T16:51:19.316Z,61.35
2019-03-09T16:53:49.610Z,61.92
2019-03-09T16:56:18.950Z,61.91
2019-03-09T16:58:48.233Z,62.00
2019-03-09T17:01:18.580Z,61.89
2019-03-09T17:03:48.808Z,61.68
2019-03-09T17:06:18.173Z,62.15
2019-03-09T17:08:50.483Z,61.67
2019-03-09T17:11:20.856Z,61.96
2019-03-09T17:13:50.097Z,62.14
2019-03-09T17:16:21.296Z,62.36
2019-03-09T17:18:50.566Z,62.97
2019-03-09T17:21:19.882Z,63.33
2019-03-09T17:23:50.126Z,63.91
2019-03-09T17:26:20.397Z,64.00
2019-03-09T17:28:50.633Z,64.06
2019-03-09T17:31:20.900Z,64.40
2019-03-09T17:33:51.146Z,64.24
2019-03-09T17:36:21.448Z,64.61
2019-03-09T17:38:51.818Z,64.00
2019-03-09T17:41:21.819Z,64.20
2019-03-09T17:43:52.014Z,64.01
2019-03-09T17:46:22.354Z,64.15
2019-03-09T17:48:51.600Z,63.93
2019-03-09T17:51:20.874Z,64.10
2019-03-09T17:53:51.158Z,64.22
2019-03-09T17:56:21.392Z,63.86
2019-03-09T17:58:50.666Z,63.71
2019-03-09T18:01:19.950Z,63.80
2019-03-09T18:03:50.225Z,63.55
2019-03-09T18:06:20.495Z,63.00
2019-03-09T18:08:49.767Z,63.04
2019-03-09T18:11:21.968Z,62.98
2019-03-09T18:13:52.319Z,62.12
2019-03-09T18:16:22.670Z,62.20
2019-03-09T18:18:54.388Z,61.63
2019-03-09T18:21:23.882Z,61.47
2019-03-09T18:23:54.229Z,61.72
2019-03-09T18:26:23.580Z,61.22
2019-03-09T18:28:52.838Z,59.96
2019-03-09T19:24:02.125Z,56.57
2019-03-09T19:26:32.397Z,56.43
2019-03-09T19:29:01.760Z,56.43
2019-03-09T19:31:31.049Z,56.42
2019-03-09T19:34:00.429Z,56.47
2019-03-09T19:36:29.745Z,56.53
2019-03-09T19:39:00.022Z,57.00
2019-03-09T19:41:30.286Z,56.61
2019-03-09T19:43:59.592Z,57.24
2019-03-09T19:46:28.879Z,56.84
2019-03-09T19:48:58.185Z,56.90
2019-03-09T19:51:30.414Z,56.87
2019-03-09T19:54:00.711Z,56.86
2019-03-09T19:56:30.048Z,56.97
2019-03-09T19:58:59.369Z,56.81
2019-03-09T20:01:28.651Z,56.72
2019-03-09T20:04:00.435Z,56.95
2019-03-09T20:06:29.743Z,57.00
2019-03-09T20:08:59.103Z,57.15
2019-03-09T20:11:28.390Z,57.08
2019-03-09T20:13:57.138Z,56.77
2019-03-09T20:16:29.294Z,56.70
2019-03-09T20:18:59.601Z,57.28
2019-03-09T20:21:28.916Z,57.14
2019-03-09T20:23:59.183Z,57.22
2019-03-09T20:26:29.557Z,56.72
2019-03-09T20:28:58.295Z,56.65
2019-03-09T20:31:27.590Z,56.75
2019-03-09T20:33:57.807Z,55.92
2019-03-09T20:36:28.047Z,55.97
2019-03-09T20:38:58.323Z,55.86
2019-03-09T20:41:27.626Z,55.67
2019-03-09T20:43:59.320Z,55.97
2019-03-09T20:46:28.625Z,56.22
2019-03-09T20:48:58.897Z,55.85
2019-03-09T20:51:28.202Z,55.56
2019-03-09T20:54:00.334Z,56.13
2019-03-09T20:56:30.638Z,55.93
2019-03-09T20:58:59.922Z,56.11
2019-03-09T21:01:29.195Z,55.91
2019-03-09T21:04:01.122Z,55.79
2019-03-09T21:06:31.483Z,55.81
2019-03-09T21:09:01.683Z,55.72
2019-03-09T21:11:30.980Z,55.84
2019-03-09T21:14:00.325Z,55.93
2019-03-09T21:16:29.643Z,56.27
2019-03-09T21:19:01.578Z,56.45
2019-03-09T21:21:30.940Z,56.44
2019-03-09T21:24:01.229Z,56.47
2019-03-09T21:26:30.600Z,56.11
2019-03-09T21:29:02.352Z,56.40
2019-03-09T21:31:31.081Z,56.27
2019-03-09T21:34:02.491Z,56.17
2019-03-09T21:36:31.794Z,56.27
2019-03-09T21:39:04.110Z,56.73
2019-03-09T21:41:34.412Z,56.49
2019-03-09T21:44:03.711Z,55.55
2019-03-09T21:46:33.044Z,55.89
2019-03-09T21:49:03.282Z,56.05
2019-03-09T21:51:35.089Z,55.76
2019-03-09T21:54:05.361Z,56.31
2019-03-09T21:56:36.253Z,56.82
2019-03-09T21:59:08.567Z,56.90
2019-03-09T22:01:38.895Z,57.19
2019-03-09T22:04:09.101Z,56.71
2019-03-09T22:06:41.298Z,56.75
2019-03-09T22:09:10.674Z,56.52
2019-03-09T22:11:41.012Z,57.17
2019-03-09T22:14:09.881Z,57.26
2019-03-09T22:16:40.144Z,56.99
2019-03-09T22:19:10.382Z,57.03
2019-03-09T22:21:39.668Z,56.77
2019-03-09T22:24:09.017Z,57.42
2019-03-09T22:26:39.312Z,57.23
2019-03-09T22:29:09.689Z,56.82
2019-03-09T22:31:39.955Z,56.84
2019-03-09T22:34:10.346Z,57.12
2019-03-09T22:36:39.056Z,57.40
2019-03-09T22:39:09.545Z,57.20
2019-03-09T22:41:39.819Z,57.28
2019-03-09T22:44:10.195Z,57.11
2019-03-09T22:46:40.424Z,57.01
2019-03-09T22:49:10.703Z,57.26
2019-03-09T22:51:42.573Z,57.23
2019-03-09T22:54:12.815Z,57.21
2019-03-09T22:56:44.974Z,56.71
2019-03-09T22:59:15.247Z,56.77
2019-03-09T23:01:45.622Z,57.41
2019-03-09T23:04:15.859Z,57.01
2019-03-09T23:06:46.116Z,56.76
2019-03-09T23:09:15.472Z,56.88
2019-03-09T23:11:45.713Z,56.66
2019-03-09T23:14:15.982Z,56.71
2019-03-09T23:16:46.224Z,57.02
2019-03-09T23:19:18.040Z,56.73
2019-03-09T23:21:48.302Z,57.10
2019-03-09T23:24:20.495Z,56.97
2019-03-09T23:26:52.235Z,57.32
2019-03-09T23:29:21.554Z,57.32
2019-03-09T23:31:50.911Z,57.29
2019-03-09T23:34:21.286Z,57.08
2019-03-09T23:36:50.067Z,57.26
2019-03-09T23:39:19.404Z,57.41
2019-03-09T23:41:48.746Z,57.30
2019-03-09T23:44:18.078Z,57.65
2019-03-09T23:46:47.372Z,57.45
2019-03-09T23:49:17.616Z,57.62
2019-03-09T23:51:47.888Z,57.56
2019-03-09T23:54:20.080Z,57.98
2019-03-09T23:56:50.378Z,57.91
2019-03-09T23:59:19.738Z,57.70
